Time;durP1;ratioP1;P1;durP2;ratioP2;P2;SDS_P1;SDS_P2;PMS_P1;PMS_P2;Temp;Humidity;BMP_temperature;BMP_pressure;BME280_temperature;BME280_humidity;BME280_pressure;Samples;Min_cycle;Max_cycle;Signal;HPM_P1;HPM_P2
2023/12/14 00:01:46;;;;;;;7.70;3.35;;;4.70;99.90;;;;;;6214614;23;20028;-74
2023/12/14 00:04:12;;;;;;;7.85;3.08;;;4.70;99.90;;;;;;6214996;23;20023;-75
2023/12/14 00:06:40;;;;;;;6.63;3.00;;;4.70;99.90;;;;;;6215014;23;20023;-74
2023/12/14 00:09:08;;;;;;;9.82;4.72;;;4.70;99.90;;;;;;6215061;23;20016;-74
2023/12/14 00:11:38;;;;;;;8.05;3.63;;;4.70;99.90;;;;;;6215009;23;20020;-75
2023/12/14 00:14:04;;;;;;;10.93;3.28;;;4.70;99.90;;;;;;6214935;23;20104;-75
2023/12/14 00:16:30;;;;;;;9.25;3.88;;;4.80;99.90;;;;;;6214992;23;20020;-74
2023/12/14 00:18:56;;;;;;;13.63;4.55;;;4.80;99.90;;;;;;6214805;23;20020;-74
2023/12/14 00:21:21;;;;;;;11.25;4.10;;;4.80;99.90;;;;;;6214950;23;20341;-74
2023/12/14 00:23:47;;;;;;;7.82;3.58;;;4.80;99.90;;;;;;6214766;23;20043;-75
2023/12/14 00:26:13;;;;;;;11.45;4.68;;;4.80;99.90;;;;;;6216446;23;20333;-75
2023/12/14 00:28:38;;;;;;;12.52;4.00;;;4.80;99.90;;;;;;6214834;23;20029;-74
2023/12/14 00:31:04;;;;;;;10.40;3.72;;;4.80;99.90;;;;;;6214743;23;20043;-75
2023/12/14 00:33:29;;;;;;;18.25;6.07;;;4.80;99.90;;;;;;6214802;23;20479;-74
2023/12/14 00:35:55;;;;;;;11.13;4.82;;;4.80;99.90;;;;;;6214679;23;20020;-75
2023/12/14 00:38:21;;;;;;;13.05;4.55;;;4.90;99.90;;;;;;6214782;23;20017;-75
2023/12/14 00:40:46;;;;;;;12.15;5.10;;;4.80;99.90;;;;;;6214770;23;20096;-75
2023/12/14 00:43:12;;;;;;;8.75;3.90;;;4.80;99.90;;;;;;6214732;23;20017;-74
2023/12/14 00:45:37;;;;;;;20.65;5.82;;;4.80;99.90;;;;;;6214750;23;20035;-75
2023/12/14 00:48:03;;;;;;;9.45;3.90;;;4.80;99.90;;;;;;6216592;23;20043;-74
2023/12/14 00:50:29;;;;;;;11.70;3.95;;;4.90;99.90;;;;;;6216571;23;20016;-75
2023/12/14 00:52:55;;;;;;;11.40;5.28;;;4.80;99.90;;;;;;6214612;23;20040;-75
2023/12/14 00:55:21;;;;;;;15.25;5.10;;;4.80;99.90;;;;;;6214429;23;20449;-75
2023/12/14 00:57:46;;;;;;;10.75;4.38;;;4.90;99.90;;;;;;6214551;23;20074;-74
2023/12/14 01:00:12;;;;;;;15.15;4.78;;;4.90;99.90;;;;;;6214425;23;20021;-74
2023/12/14 01:02:38;;;;;;;19.00;5.22;;;4.90;99.90;;;;;;6214501;23;20023;-75
2023/12/14 01:05:04;;;;;;;16.10;5.45;;;4.90;99.90;;;;;;6214614;23;20020;-75
2023/12/14 01:07:30;;;;;;;30.27;5.90;;;4.90;99.90;;;;;;6214459;23;20040;-75
2023/12/14 01:09:55;;;;;;;10.32;4.75;;;4.90;99.90;;;;;;6214632;23;20491;-75
2023/12/14 01:12:21;;;;;;;11.73;4.82;;;4.90;99.90;;;;;;6214463;23;20444;-74
2023/12/14 01:14:47;;;;;;;15.80;4.97;;;4.80;99.90;;;;;;6214638;23;20334;-75
2023/12/14 01:17:12;;;;;;;15.48;4.97;;;4.80;99.90;;;;;;6214467;23;20459;-74
2023/12/14 01:19:41;;;;;;;11.60;5.13;;;4.90;99.90;;;;;;6214877;23;20062;-75
2023/12/14 01:22:07;;;;;;;13.68;5.78;;;4.90;99.90;;;;;;6214469;23;20451;-75
2023/12/14 01:24:33;;;;;;;13.32;4.38;;;4.90;99.90;;;;;;6214517;23;20017;-74
2023/12/14 01:26:58;;;;;;;14.40;4.97;;;4.90;99.90;;;;;;6214489;23;20021;-74
2023/12/14 01:29:24;;;;;;;10.65;4.80;;;4.90;99.90;;;;;;6214471;23;20059;-75
2023/12/14 01:31:49;;;;;;;14.10;5.75;;;4.90;99.90;;;;;;6214457;23;20016;-75
2023/12/14 01:34:15;;;;;;;15.38;5.45;;;4.90;99.90;;;;;;6214410;23;20066;-75
2023/12/14 01:36:41;;;;;;;13.75;5.60;;;4.90;99.90;;;;;;6216316;23;20340;-75
2023/12/14 01:39:07;;;;;;;13.48;4.70;;;4.90;99.90;;;;;;6214407;23;20017;-75
2023/12/14 01:41:33;;;;;;;11.93;5.15;;;4.90;99.90;;;;;;6214408;23;20404;-74
2023/12/14 01:43:58;;;;;;;16.45;6.75;;;4.80;99.90;;;;;;6214292;23;20020;-75
2023/12/14 01:46:24;;;;;;;18.20;6.38;;;4.90;99.90;;;;;;6214388;23;20020;-75
2023/12/14 01:48:51;;;;;;;18.10;7.47;;;4.90;99.90;;;;;;6214236;23;20016;-75
2023/12/14 01:51:17;;;;;;;18.15;6.82;;;4.90;99.90;;;;;;6214322;23;20016;-75
2023/12/14 01:53:43;;;;;;;16.60;7.95;;;4.80;99.90;;;;;;6214016;23;20074;-75
2023/12/14 01:56:10;;;;;;;15.07;6.53;;;4.80;99.90;;;;;;6214186;23;20027;-75
2023/12/14 01:58:36;;;;;;;18.85;6.22;;;4.80;99.90;;;;;;6214286;23;20020;-75
2023/12/14 02:01:18;;;;;;;16.45;6.50;;;4.80;99.90;;;;;;6214204;23;20103;-74
2023/12/14 02:03:45;;;;;;;15.80;7.18;;;4.80;99.90;;;;;;6214317;23;20040;-74
2023/12/14 02:06:17;;;;;;;12.88;6.03;;;4.80;99.90;;;;;;6215851;23;20075;-74
2023/12/14 02:08:43;;;;;;;16.83;6.35;;;4.80;99.90;;;;;;6214374;23;20023;-75
2023/12/14 02:11:08;;;;;;;17.23;6.63;;;4.80;99.90;;;;;;6214248;23;20029;-75
2023/12/14 02:13:34;;;;;;;18.27;6.03;;;4.80;99.90;;;;;;6214211;23;20341;-75
2023/12/14 02:16:00;;;;;;;21.73;7.88;;;4.80;99.90;;;;;;6214099;23;20020;-75
2023/12/14 02:18:26;;;;;;;15.25;6.25;;;4.80;99.90;;;;;;6214270;23;20013;-74
2023/12/14 02:20:52;;;;;;;18.33;7.03;;;4.80;99.90;;;;;;6214264;23;20344;-74
2023/12/14 02:23:17;;;;;;;16.75;6.07;;;4.80;99.90;;;;;;6215596;23;20456;-74
2023/12/14 02:25:43;;;;;;;14.18;5.85;;;4.80;99.90;;;;;;6215497;23;20027;-74
2023/12/14 02:28:09;;;;;;;14.32;6.75;;;4.80;99.90;;;;;;6216023;23;20028;-75
2023/12/14 02:30:34;;;;;;;18.10;6.47;;;4.80;99.90;;;;;;6215870;23;20028;-75
2023/12/14 02:33:00;;;;;;;14.48;5.35;;;4.80;99.90;;;;;;6216015;23;20028;-74
2023/12/14 02:35:26;;;;;;;14.75;5.90;;;4.80;99.90;;;;;;6215778;23;20353;-75
2023/12/14 02:37:51;;;;;;;15.98;5.45;;;4.80;99.90;;;;;;6215862;23;20063;-75
2023/12/14 02:40:17;;;;;;;12.10;5.15;;;4.80;99.90;;;;;;6215959;23;20020;-74
2023/12/14 02:42:43;;;;;;;12.40;5.43;;;4.80;99.90;;;;;;6215800;23;20396;-74
2023/12/14 02:45:09;;;;;;;12.18;5.57;;;4.70;99.90;;;;;;6215862;23;20047;-75
2023/12/14 02:47:34;;;;;;;14.32;5.63;;;4.70;99.90;;;;;;6215901;23;20020;-75
2023/12/14 02:50:00;;;;;;;17.50;5.40;;;4.80;99.90;;;;;;6215806;23;20021;-75
2023/12/14 02:52:26;;;;;;;17.00;5.75;;;4.80;99.90;;;;;;6215790;23;20435;-75
2023/12/14 02:54:53;;;;;;;15.52;5.00;;;4.80;99.90;;;;;;6215424;23;20092;-75
2023/12/14 02:57:18;;;;;;;13.55;5.88;;;4.80;99.90;;;;;;6215721;23;20099;-74
2023/12/14 02:59:44;;;;;;;16.45;5.97;;;4.80;99.90;;;;;;6215799;23;20047;-75
2023/12/14 03:02:10;;;;;;;16.95;6.70;;;4.80;99.90;;;;;;6217619;23;20017;-75
2023/12/14 03:04:39;;;;;;;12.15;5.40;;;4.70;99.90;;;;;;6215615;23;20016;-75
2023/12/14 03:07:05;;;;;;;14.45;5.78;;;4.80;99.90;;;;;;6215619;23;20017;-74
2023/12/14 03:09:30;;;;;;;18.85;6.80;;;4.80;99.90;;;;;;6215483;23;20019;-75
2023/12/14 03:11:56;;;;;;;15.93;6.13;;;4.80;99.90;;;;;;6215610;23;20465;-75
2023/12/14 03:14:22;;;;;;;14.77;5.78;;;4.80;99.90;;;;;;6215268;23;20017;-75
2023/12/14 03:16:48;;;;;;;16.45;5.78;;;4.70;99.90;;;;;;6215483;23;20021;-74
2023/12/14 03:19:15;;;;;;;13.80;5.55;;;4.70;99.90;;;;;;6215608;23;20021;-75
2023/12/14 03:21:41;;;;;;;13.45;5.35;;;4.70;99.90;;;;;;6215446;23;20074;-75
2023/12/14 03:24:07;;;;;;;14.63;5.82;;;4.80;99.90;;;;;;6215448;23;20052;-75
2023/12/14 03:26:33;;;;;;;13.65;5.65;;;4.80;99.90;;;;;;6215450;23;20016;-75
2023/12/14 03:29:04;;;;;;;12.98;5.00;;;4.70;99.90;;;;;;6215476;23;20013;-75
2023/12/14 03:31:30;;;;;;;15.02;5.82;;;4.70;99.90;;;;;;6215462;23;20051;-74
2023/12/14 03:33:56;;;;;;;14.30;6.45;;;4.70;99.90;;;;;;6215437;23;20017;-75
2023/12/14 03:36:25;;;;;;;13.32;5.68;;;4.70;99.90;;;;;;6215213;23;20031;-75
2023/12/14 03:38:51;;;;;;;17.35;5.75;;;4.70;99.90;;;;;;6215267;23;20013;-75
2023/12/14 03:41:16;;;;;;;18.23;6.47;;;4.70;99.90;;;;;;6215347;23;20023;-75
2023/12/14 03:43:42;;;;;;;15.70;5.55;;;4.70;99.90;;;;;;6215193;23;20013;-75
2023/12/14 03:46:08;;;;;;;17.88;6.20;;;4.70;99.90;;;;;;6217057;23;20019;-74
2023/12/14 03:48:36;;;;;;;13.23;6.28;;;4.70;99.90;;;;;;6215282;23;20012;-75
2023/12/14 03:51:05;;;;;;;13.18;5.75;;;4.70;99.90;;;;;;6214999;23;20075;-75
2023/12/14 03:53:31;;;;;;;18.80;6.18;;;4.70;99.90;;;;;;6214929;23;20112;-75
2023/12/14 03:56:00;;;;;;;14.68;6.30;;;4.70;99.90;;;;;;6215142;23;20028;-75
2023/12/14 03:58:26;;;;;;;12.98;6.43;;;4.70;99.90;;;;;;6215163;23;20017;-75
2023/12/14 04:00:52;;;;;;;14.57;6.43;;;4.70;99.90;;;;;;6215050;23;20016;-75
2023/12/14 04:03:18;;;;;;;16.77;5.93;;;4.70;99.90;;;;;;6215137;23;20017;-75
2023/12/14 04:05:44;;;;;;;15.32;6.18;;;4.70;99.90;;;;;;6216626;23;20453;-75
2023/12/14 04:08:10;;;;;;;13.88;6.45;;;4.70;99.90;;;;;;6215067;23;20452;-74
2023/12/14 04:10:36;;;;;;;15.02;5.88;;;4.70;99.90;;;;;;6215031;23;20028;-75
2023/12/14 04:13:01;;;;;;;14.88;6.38;;;4.70;99.90;;;;;;6215422;23;20016;-75
2023/12/14 04:15:27;;;;;;;15.73;7.25;;;4.70;99.90;;;;;;6216789;23;20024;-75
2023/12/14 04:17:53;;;;;;;17.88;6.15;;;4.70;99.90;;;;;;6214952;23;20048;-75
2023/12/14 04:20:19;;;;;;;15.02;6.93;;;4.60;99.90;;;;;;6215002;23;20079;-75
2023/12/14 04:22:45;;;;;;;15.27;6.88;;;4.70;99.90;;;;;;6214736;23;20344;-74
2023/12/14 04:25:10;;;;;;;15.75;6.43;;;4.60;99.90;;;;;;6214958;23;20071;-75
2023/12/14 04:27:36;;;;;;;13.63;6.15;;;4.70;99.90;;;;;;6215016;23;20465;-75
2023/12/14 04:30:04;;;;;;;12.57;6.43;;;4.70;99.90;;;;;;6214910;23;20020;-75
2023/12/14 04:32:30;;;;;;;14.02;6.20;;;4.70;99.90;;;;;;6216749;23;20021;-75
2023/12/14 04:34:55;;;;;;;16.50;6.75;;;4.70;99.90;;;;;;6214602;23;20025;-75
2023/12/14 04:37:21;;;;;;;16.02;6.88;;;4.70;99.90;;;;;;6214720;23;20835;-74
2023/12/14 04:39:47;;;;;;;15.40;6.40;;;4.70;99.90;;;;;;6214815;23;20070;-75
2023/12/14 04:42:12;;;;;;;13.52;5.95;;;4.60;99.90;;;;;;6215406;23;20016;-75
2023/12/14 04:44:39;;;;;;;19.58;6.25;;;4.70;99.90;;;;;;6216331;23;20021;-74
2023/12/14 04:47:04;;;;;;;30.65;6.88;;;4.70;99.90;;;;;;6214399;23;20056;-75
2023/12/14 04:49:30;;;;;;;20.05;6.93;;;4.70;99.90;;;;;;6214723;23;20017;-75
2023/12/14 04:51:55;;;;;;;12.43;5.88;;;4.70;99.90;;;;;;6214710;23;20028;-75
2023/12/14 04:54:21;;;;;;;16.67;6.15;;;4.60;99.90;;;;;;6214310;23;20436;-75
2023/12/14 04:56:47;;;;;;;14.48;6.75;;;4.70;99.90;;;;;;6214725;23;20025;-75
2023/12/14 04:59:12;;;;;;;16.58;6.03;;;4.70;99.90;;;;;;6216205;23;20024;-75
2023/12/14 05:01:38;;;;;;;15.57;6.13;;;4.70;99.90;;;;;;6214733;23;20043;-75
2023/12/14 05:04:03;;;;;;;16.20;6.50;;;4.70;99.90;;;;;;6214673;23;20020;-75
2023/12/14 05:06:29;;;;;;;12.50;5.93;;;4.70;99.90;;;;;;6214577;23;20020;-75
2023/12/14 05:08:55;;;;;;;16.00;6.40;;;4.70;99.90;;;;;;6214547;23;20345;-75
2023/12/14 05:11:21;;;;;;;15.52;5.78;;;4.70;99.90;;;;;;6214574;23;20023;-75
2023/12/14 05:13:46;;;;;;;15.75;5.63;;;4.70;99.90;;;;;;6214598;23;20017;-75
2023/12/14 05:16:16;;;;;;;13.68;6.35;;;4.70;99.90;;;;;;6214356;23;20019;-75
2023/12/14 05:18:42;;;;;;;12.90;6.00;;;4.70;99.90;;;;;;6214403;23;20460;-75
2023/12/14 05:21:08;;;;;;;14.05;6.00;;;4.70;99.90;;;;;;6216264;23;20013;-75
2023/12/14 05:23:34;;;;;;;13.75;6.20;;;4.70;99.90;;;;;;6214481;23;20021;-75
2023/12/14 05:26:00;;;;;;;11.85;5.28;;;4.70;99.90;;;;;;6214432;23;20630;-75
2023/12/14 05:28:25;;;;;;;15.50;6.53;;;4.70;99.90;;;;;;6215995;23;20096;-75
2023/12/14 05:30:51;;;;;;;12.93;5.50;;;4.70;99.90;;;;;;6214486;23;20021;-75
2023/12/14 05:33:16;;;;;;;14.02;6.95;;;4.70;99.90;;;;;;6214437;23;20091;-75
2023/12/14 05:35:42;;;;;;;16.58;6.93;;;4.70;99.90;;;;;;6214266;23;20024;-75
2023/12/14 05:38:08;;;;;;;12.82;6.10;;;4.70;99.90;;;;;;6214514;23;20092;-75
2023/12/14 05:40:33;;;;;;;18.15;6.63;;;4.60;99.90;;;;;;6214483;23;20048;-75
2023/12/14 05:42:59;;;;;;;16.85;7.43;;;4.70;99.90;;;;;;6214366;23;20096;-75
2023/12/14 05:45:24;;;;;;;18.23;6.38;;;4.70;99.90;;;;;;6214446;23;20016;-75
2023/12/14 05:47:56;;;;;;;15.93;5.68;;;4.70;99.90;;;;;;6212696;23;20025;-75
2023/12/14 05:50:25;;;;;;;14.15;5.97;;;4.70;99.90;;;;;;6214379;23;20017;-75
2023/12/14 05:52:50;;;;;;;13.93;6.07;;;4.70;99.90;;;;;;6213782;23;20023;-75
2023/12/14 05:55:21;;;;;;;16.98;6.78;;;4.70;99.90;;;;;;6214039;23;20020;-75
2023/12/14 05:57:50;;;;;;;12.35;5.72;;;4.70;99.90;;;;;;6214372;23;20389;-75
2023/12/14 06:00:16;;;;;;;14.80;5.88;;;4.70;99.90;;;;;;6215081;23;20027;-75
2023/12/14 06:02:41;;;;;;;16.25;6.57;;;4.70;99.90;;;;;;6216179;23;20016;-75
2023/12/14 06:05:08;;;;;;;11.75;6.03;;;4.70;99.90;;;;;;6216218;23;20028;-75
2023/12/14 06:07:33;;;;;;;13.80;6.50;;;4.70;99.90;;;;;;6216202;23;20025;-75
2023/12/14 06:10:00;;;;;;;16.55;5.25;;;4.70;99.90;;;;;;6216120;23;20207;-75
2023/12/14 06:12:26;;;;;;;12.75;6.05;;;4.70;99.90;;;;;;6216121;23;20016;-75
2023/12/14 06:14:52;;;;;;;15.80;6.05;;;4.70;99.90;;;;;;6216081;23;20453;-75
2023/12/14 06:17:18;;;;;;;12.48;5.75;;;4.70;99.90;;;;;;6216125;23;20020;-75
2023/12/14 06:19:43;;;;;;;14.30;5.80;;;4.70;99.90;;;;;;6216114;23;20035;-75
2023/12/14 06:22:09;;;;;;;13.55;5.60;;;4.60;99.90;;;;;;6216059;23;20048;-75
2023/12/14 06:24:34;;;;;;;14.52;6.53;;;4.70;99.90;;;;;;6216136;23;20350;-75
2023/12/14 06:27:00;;;;;;;14.98;6.57;;;4.70;99.90;;;;;;6216111;23;20085;-75
2023/12/14 06:29:26;;;;;;;14.40;5.97;;;4.70;99.90;;;;;;6216023;23;20020;-75
2023/12/14 06:31:52;;;;;;;21.25;7.13;;;4.70;99.90;;;;;;6217526;23;20044;-75
2023/12/14 06:34:18;;;;;;;12.60;5.32;;;4.70;99.90;;;;;;6215902;23;20017;-75
2023/12/14 06:36:45;;;;;;;13.05;6.00;;;4.70;99.90;;;;;;6215807;23;20099;-75
2023/12/14 06:39:11;;;;;;;14.13;6.40;;;4.70;99.90;;;;;;6215991;23;20452;-75
2023/12/14 06:41:37;;;;;;;19.90;6.00;;;4.70;99.90;;;;;;6215975;23;20083;-75
2023/12/14 06:44:02;;;;;;;14.77;5.18;;;4.70;99.90;;;;;;6215847;23;20016;-75
2023/12/14 06:46:28;;;;;;;16.67;6.43;;;4.70;99.90;;;;;;6215870;23;20437;-75
2023/12/14 06:48:55;;;;;;;15.07;6.32;;;4.60;99.90;;;;;;6215763;23;20051;-75
2023/12/14 06:51:24;;;;;;;17.08;6.00;;;4.70;99.90;;;;;;6215838;23;20013;-75
2023/12/14 06:53:49;;;;;;;14.52;5.93;;;4.70;99.90;;;;;;6215595;23;20027;-75
2023/12/14 06:56:15;;;;;;;16.30;7.00;;;4.70;99.90;;;;;;6215652;23;20017;-75
2023/12/14 06:58:43;;;;;;;14.18;6.78;;;4.60;99.90;;;;;;6215788;23;20055;-75
2023/12/14 07:01:14;;;;;;;15.77;6.13;;;4.70;99.90;;;;;;6215763;23;20023;-75
2023/12/14 07:03:46;;;;;;;15.57;6.25;;;4.70;99.90;;;;;;6217605;23;20009;-75
2023/12/14 07:06:15;;;;;;;16.07;6.50;;;4.70;99.90;;;;;;6215739;23;20016;-75
2023/12/14 07:08:42;;;;;;;14.43;5.60;;;4.70;99.90;;;;;;6215680;23;20017;-75
2023/12/14 07:11:09;;;;;;;13.35;5.85;;;4.70;99.90;;;;;;6215407;23;20017;-75
2023/12/14 07:13:36;;;;;;;18.33;6.55;;;4.70;99.90;;;;;;6215520;23;20500;-75
2023/12/14 07:16:09;;;;;;;16.05;6.30;;;4.70;99.90;;;;;;6215462;23;20026;-75
2023/12/14 07:18:38;;;;;;;21.90;6.55;;;4.60;99.90;;;;;;6215613;23;20087;-75
2023/12/14 07:21:07;;;;;;;15.90;6.88;;;4.60;99.90;;;;;;6215535;23;20314;-75
2023/12/14 07:23:34;;;;;;;16.60;6.82;;;4.60;99.90;;;;;;6215397;23;20020;-75
2023/12/14 07:26:00;;;;;;;20.60;6.90;;;4.70;99.90;;;;;;6215461;23;20020;-75
2023/12/14 07:28:26;;;;;;;18.95;7.38;;;4.70;99.90;;;;;;6215455;23;20032;-75
2023/12/14 07:30:52;;;;;;;16.08;6.60;;;4.70;99.90;;;;;;6215450;23;20023;-75
2023/12/14 07:33:17;;;;;;;14.93;6.28;;;4.70;99.90;;;;;;6215377;23;20017;-75
2023/12/14 07:35:43;;;;;;;14.85;6.55;;;4.70;99.90;;;;;;6215339;23;20024;-75
2023/12/14 07:38:12;;;;;;;19.67;6.70;;;4.70;99.90;;;;;;6215332;23;20017;-75
2023/12/14 07:40:41;;;;;;;15.57;7.78;;;4.60;99.90;;;;;;6215293;23;20018;-75
2023/12/14 07:43:07;;;;;;;17.95;6.20;;;4.60;99.90;;;;;;6217168;23;20048;-75
2023/12/14 07:45:33;;;;;;;15.85;6.93;;;4.70;99.90;;;;;;6216790;23;20345;-75
2023/12/14 07:47:58;;;;;;;11.95;6.60;;;4.70;99.90;;;;;;6215262;23;20437;-75
2023/12/14 07:50:26;;;;;;;15.45;8.20;;;4.70;99.90;;;;;;6216670;23;20024;-74
2023/12/14 07:52:52;;;;;;;17.35;6.88;;;4.70;99.90;;;;;;6215101;23;20016;-75
2023/12/14 07:55:18;;;;;;;18.75;7.72;;;4.70;99.90;;;;;;6214740;23;20024;-74
2023/12/14 07:57:44;;;;;;;16.63;7.40;;;4.70;99.90;;;;;;6214640;23;20103;-75
2023/12/14 08:00:10;;;;;;;15.90;7.38;;;4.70;99.90;;;;;;6214627;23;20051;-75
2023/12/14 08:02:36;;;;;;;20.70;7.07;;;4.70;99.90;;;;;;6215035;23;20103;-75
2023/12/14 08:05:02;;;;;;;14.55;7.28;;;4.70;99.90;;;;;;6214944;23;20024;-75
2023/12/14 08:07:29;;;;;;;15.30;6.88;;;4.70;99.90;;;;;;6214868;23;20013;-76
2023/12/14 08:09:58;;;;;;;17.02;7.13;;;4.60;99.90;;;;;;6214852;23;20107;-76
2023/12/14 08:12:24;;;;;;;14.82;6.60;;;4.70;99.90;;;;;;6214842;23;20082;-77
2023/12/14 08:14:50;;;;;;;13.95;6.50;;;4.70;99.90;;;;;;6214668;23;20020;-76
2023/12/14 08:17:16;;;;;;;11.75;6.63;;;4.70;99.90;;;;;;6214886;23;20071;-76
2023/12/14 08:19:45;;;;;;;16.13;6.70;;;4.70;99.90;;;;;;6214905;23;20377;-76
2023/12/14 08:22:12;;;;;;;13.90;6.25;;;4.70;99.90;;;;;;6216217;23;20052;-76
2023/12/14 08:24:38;;;;;;;14.13;6.38;;;4.70;99.90;;;;;;6214866;23;20025;-76
2023/12/14 08:27:04;;;;;;;16.90;6.80;;;4.60;99.90;;;;;;6216335;23;20020;-76
2023/12/14 08:29:31;;;;;;;24.13;12.98;;;4.70;99.90;;;;;;6216704;23;20028;-76
2023/12/14 08:31:58;;;;;;;21.73;11.73;;;4.70;99.90;;;;;;6216515;23;20021;-76
2023/12/14 08:34:25;;;;;;;22.67;10.85;;;4.70;99.90;;;;;;6214652;23;20445;-76
2023/12/14 08:36:51;;;;;;;18.45;8.43;;;4.70;99.90;;;;;;6214497;23;20070;-76
2023/12/14 08:39:16;;;;;;;14.27;6.78;;;4.70;99.90;;;;;;6214727;23;20440;-76
2023/12/14 08:41:42;;;;;;;18.40;7.05;;;4.70;99.90;;;;;;6214687;23;20040;-76
2023/12/14 08:44:08;;;;;;;15.80;7.07;;;4.70;99.90;;;;;;6214695;23;20017;-75
2023/12/14 08:46:45;;;;;;;17.20;6.75;;;4.70;99.90;;;;;;6214632;23;20024;-76
2023/12/14 08:49:12;;;;;;;16.35;6.63;;;4.80;99.90;;;;;;6213516;23;20025;-75
2023/12/14 08:51:38;;;;;;;17.27;7.30;;;4.80;99.90;;;;;;6214327;23;20043;-75
2023/12/14 08:54:04;;;;;;;18.58;7.32;;;4.80;99.90;;;;;;6214177;23;20345;-75
2023/12/14 08:56:30;;;;;;;17.42;7.30;;;4.80;99.90;;;;;;6214339;23;20144;-75
2023/12/14 08:58:57;;;;;;;18.98;7.43;;;4.80;99.90;;;;;;6214283;23;20024;-75
2023/12/14 09:01:23;;;;;;;20.73;8.65;;;4.80;99.90;;;;;;6214398;23;20031;-75
2023/12/14 09:03:49;;;;;;;19.98;7.22;;;4.80;99.90;;;;;;6214160;23;20013;-75
2023/12/14 09:06:16;;;;;;;19.50;7.05;;;4.80;99.90;;;;;;6214279;23;20048;-75
2023/12/14 09:08:42;;;;;;;17.90;7.68;;;4.80;99.90;;;;;;6214301;23;20025;-75
2023/12/14 09:11:08;;;;;;;18.75;7.70;;;4.80;99.90;;;;;;6215716;23;20075;-75
2023/12/14 09:13:36;;;;;;;17.83;8.55;;;4.80;99.90;;;;;;6214256;23;20013;-76
2023/12/14 09:16:02;;;;;;;23.33;8.00;;;4.80;99.90;;;;;;6214151;23;20051;-76
2023/12/14 09:18:30;;;;;;;25.73;9.48;;;4.80;99.90;;;;;;6214066;23;20082;-75
2023/12/14 09:20:56;;;;;;;23.50;8.00;;;4.80;99.90;;;;;;6214197;23;20091;-75
2023/12/14 09:23:21;;;;;;;18.88;9.18;;;4.80;99.90;;;;;;6215738;23;20021;-76
2023/12/14 09:25:47;;;;;;;16.83;7.97;;;4.80;99.90;;;;;;6214120;23;20021;-75
2023/12/14 09:28:13;;;;;;;22.02;9.57;;;4.80;99.90;;;;;;6214125;23;20024;-74
2023/12/14 09:30:38;;;;;;;24.77;9.48;;;4.90;99.90;;;;;;6214124;23;20017;-75
2023/12/14 09:33:04;;;;;;;22.35;9.73;;;4.80;99.90;;;;;;6214085;23;20021;-75
2023/12/14 09:35:29;;;;;;;20.30;9.70;;;4.80;99.90;;;;;;6216072;23;20020;-75
2023/12/14 09:37:56;;;;;;;21.45;8.35;;;4.80;99.90;;;;;;6217675;23;20099;-74
2023/12/14 09:40:22;;;;;;;19.88;7.65;;;4.90;99.90;;;;;;6216003;23;20055;-76
2023/12/14 09:42:48;;;;;;;17.80;7.95;;;4.90;99.90;;;;;;6216110;23;20026;-75
2023/12/14 09:45:17;;;;;;;17.02;7.93;;;4.90;99.90;;;;;;6216052;23;20083;-75
2023/12/14 09:47:44;;;;;;;23.63;9.00;;;4.90;99.90;;;;;;6217459;23;20449;-75
2023/12/14 09:50:10;;;;;;;20.08;7.63;;;5.00;99.90;;;;;;6216189;23;20047;-76
2023/12/14 09:52:35;;;;;;;19.85;7.78;;;5.00;99.90;;;;;;6216001;23;20012;-75
2023/12/14 09:55:04;;;;;;;24.15;9.43;;;5.00;99.90;;;;;;6215698;23;20020;-75
2023/12/14 09:57:29;;;;;;;29.33;8.95;;;5.00;99.90;;;;;;6216009;23;20027;-75
2023/12/14 09:59:55;;;;;;;17.33;7.75;;;5.00;99.90;;;;;;6215977;23;20040;-75
2023/12/14 10:02:26;;;;;;;17.02;8.63;;;5.00;99.90;;;;;;6215832;23;20107;-75
2023/12/14 10:04:52;;;;;;;16.38;7.05;;;5.00;99.90;;;;;;6215966;23;20389;-75
2023/12/14 10:07:18;;;;;;;22.83;8.68;;;5.00;99.90;;;;;;6215848;23;20475;-75
2023/12/14 10:09:44;;;;;;;22.85;7.43;;;5.10;99.90;;;;;;6215834;23;20048;-75
2023/12/14 10:12:11;;;;;;;21.65;7.97;;;5.00;99.90;;;;;;6215681;23;20013;-75
2023/12/14 10:14:37;;;;;;;19.10;8.23;;;5.00;99.90;;;;;;6215695;23;20023;-75
2023/12/14 10:17:16;;;;;;;19.75;7.88;;;5.10;99.90;;;;;;6217650;23;20017;-75
2023/12/14 10:19:46;;;;;;;21.48;9.00;;;5.10;99.90;;;;;;6215741;23;20012;-75
2023/12/14 10:22:15;;;;;;;22.90;8.80;;;5.20;99.90;;;;;;6215619;23;20020;-75
2023/12/14 10:24:44;;;;;;;18.30;8.13;;;5.20;99.90;;;;;;6215757;23;20056;-75
2023/12/14 10:27:11;;;;;;;20.77;9.18;;;5.30;99.90;;;;;;6215599;23;20024;-75
2023/12/14 10:29:39;;;;;;;24.00;10.65;;;5.30;99.90;;;;;;6217579;23;20059;-75
2023/12/14 10:32:06;;;;;;;20.20;9.32;;;5.30;99.90;;;;;;6215694;23;20020;-76
2023/12/14 10:34:35;;;;;;;18.10;8.35;;;5.30;99.90;;;;;;6215551;23;20020;-75
2023/12/14 10:37:04;;;;;;;18.42;8.77;;;5.50;99.90;;;;;;6215698;23;20055;-75
2023/12/14 10:39:31;;;;;;;17.17;9.00;;;5.60;99.90;;;;;;6215534;23;20020;-75
2023/12/14 10:41:58;;;;;;;19.35;9.18;;;5.70;99.90;;;;;;6215584;23;20047;-75
2023/12/14 10:44:27;;;;;;;22.45;9.35;;;5.80;99.90;;;;;;6215476;23;20341;-75
2023/12/14 10:46:58;;;;;;;23.45;9.70;;;5.90;99.90;;;;;;6215097;23;20442;-75
2023/12/14 10:49:34;;;;;;;19.67;8.73;;;6.00;99.90;;;;;;6215686;23;20021;-75
2023/12/14 10:52:02;;;;;;;21.80;8.80;;;6.00;99.90;;;;;;6217270;23;20062;-75
2023/12/14 10:54:31;;;;;;;19.25;9.70;;;6.00;99.90;;;;;;6216064;23;20029;-75
2023/12/14 10:56:59;;;;;;;17.63;8.63;;;6.00;99.90;;;;;;6215343;23;20055;-75
2023/12/14 10:59:25;;;;;;;19.25;9.60;;;6.10;99.90;;;;;;6215377;23;20021;-75
2023/12/14 11:01:58;;;;;;;26.70;9.60;;;6.10;99.90;;;;;;6215428;23;20125;-75
2023/12/14 11:04:27;;;;;;;;;;;6.10;99.90;;;;;;6216160;23;20427;-75
2023/12/14 11:06:54;;;;;;;21.58;9.05;;;6.10;99.90;;;;;;6215281;23;19931;-75
2023/12/14 11:09:24;;;;;;;22.70;10.30;;;6.20;99.90;;;;;;6215387;23;20429;-75
2023/12/14 11:11:53;;;;;;;23.50;10.18;;;6.30;99.90;;;;;;6215427;23;20027;-75
2023/12/14 11:14:20;;;;;;;19.52;8.95;;;6.20;99.90;;;;;;6215307;23;20048;-75
2023/12/14 11:16:48;;;;;;;19.50;9.23;;;6.20;99.90;;;;;;6215237;23;20023;-75
2023/12/14 11:19:25;;;;;;;20.27;9.88;;;6.20;99.90;;;;;;6215115;23;20385;-75
2023/12/14 11:21:55;;;;;;;21.80;10.00;;;6.20;99.90;;;;;;6215330;23;20471;-75
2023/12/14 11:24:21;;;;;;;23.27;9.82;;;6.20;99.90;;;;;;6215200;23;20013;-75
2023/12/14 11:26:49;;;;;;;22.20;9.98;;;6.30;99.90;;;;;;6215196;23;20048;-75
2023/12/14 11:29:16;;;;;;;19.33;9.70;;;6.30;99.90;;;;;;6215126;23;20024;-75
2023/12/14 11:31:42;;;;;;;25.85;11.73;;;6.20;99.90;;;;;;6215076;23;20502;-74
2023/12/14 11:34:08;;;;;;;24.73;10.43;;;6.20;99.90;;;;;;6212585;23;20012;-79
2023/12/14 11:36:33;;;;;;;22.30;10.93;;;6.20;99.90;;;;;;6216441;23;20062;-75
2023/12/14 11:38:59;;;;;;;31.17;13.07;;;6.20;99.90;;;;;;6215107;23;20027;-75
2023/12/14 11:41:25;;;;;;;29.38;12.48;;;6.20;99.90;;;;;;6214839;23;20021;-74
2023/12/14 11:43:51;;;;;;;24.63;10.73;;;6.20;99.90;;;;;;6215025;23;20451;-75
2023/12/14 11:46:18;;;;;;;20.30;9.52;;;6.20;99.90;;;;;;6214770;23;20021;-75
2023/12/14 11:48:48;;;;;;;20.85;11.38;;;6.20;99.90;;;;;;6214937;23;20020;-74
2023/12/14 11:51:15;;;;;;;21.75;11.18;;;6.20;99.90;;;;;;6214813;23;20084;-74
2023/12/14 11:53:44;;;;;;;22.08;10.07;;;6.20;99.90;;;;;;6216459;23;20020;-75
2023/12/14 11:56:14;;;;;;;22.55;10.40;;;6.20;99.90;;;;;;6214712;23;20453;-76
2023/12/14 11:58:44;;;;;;;23.33;10.60;;;6.20;99.90;;;;;;6214833;23;20437;-75
2023/12/14 12:01:25;;;;;;;21.63;10.20;;;6.30;99.90;;;;;;6214830;23;20016;-75
2023/12/14 12:03:51;;;;;;;23.20;10.18;;;6.30;99.90;;;;;;6214752;23;20021;-75
2023/12/14 12:06:21;;;;;;;20.27;9.82;;;6.20;99.90;;;;;;6214591;23;20074;-75
2023/12/14 12:08:47;;;;;;;21.23;10.02;;;6.20;99.90;;;;;;6214821;23;20101;-75
2023/12/14 12:11:20;;;;;;;24.23;10.02;;;6.30;99.90;;;;;;6214674;23;20012;-75
2023/12/14 12:13:51;;;;;;;20.17;10.00;;;6.30;99.90;;;;;;6214688;23;20345;-75
2023/12/14 12:16:17;;;;;;;23.80;10.98;;;6.30;99.90;;;;;;6214628;23;20020;-73
2023/12/14 12:18:42;;;;;;;22.77;10.63;;;6.30;99.90;;;;;;6216180;23;20448;-73
2023/12/14 12:21:08;;;;;;;21.48;10.32;;;6.30;99.90;;;;;;6214646;23;20506;-74
2023/12/14 12:23:35;;;;;;;22.35;10.50;;;6.30;99.90;;;;;;6216175;23;20505;-74
2023/12/14 12:26:00;;;;;;;24.70;10.85;;;6.30;99.90;;;;;;6214447;23;20349;-74
2023/12/14 12:28:26;;;;;;;22.42;12.00;;;6.30;99.90;;;;;;6214624;23;20016;-74
2023/12/14 12:30:51;;;;;;;19.80;9.73;;;6.30;99.90;;;;;;6214609;23;20020;-74
2023/12/14 12:33:17;;;;;;;21.67;9.63;;;6.20;99.90;;;;;;6214445;23;20440;-74
2023/12/14 12:35:43;;;;;;;24.38;10.63;;;6.20;99.90;;;;;;6216208;23;20021;-74
2023/12/14 12:38:08;;;;;;;21.77;10.52;;;6.20;99.90;;;;;;6214492;23;20429;-74
2023/12/14 12:40:34;;;;;;;21.10;9.35;;;6.30;99.90;;;;;;6214283;23;20095;-74
2023/12/14 12:42:59;;;;;;;19.17;10.75;;;6.30;99.90;;;;;;6214437;23;20013;-74